sensor_id;sensor_type;location;lat;lon;timestamp;P1;durP1;ratioP1;P2;durP2;ratioP2
43835;SDS011;39345;43.964;25.340;2022-11-20T00:00:20;43.95;;;25.25;;
43835;SDS011;39345;43.964;25.340;2022-11-20T00:02:48;43.78;;;25.77;;
43835;SDS011;39345;43.964;25.340;2022-11-20T00:05:15;42.55;;;24.45;;
43835;SDS011;39345;43.964;25.340;2022-11-20T00:07:43;39.72;;;24.25;;
43835;SDS011;39345;43.964;25.340;2022-11-20T00:10:11;42.08;;;24.45;;
43835;SDS011;39345;43.964;25.340;2022-11-20T00:12:38;41.78;;;23.65;;
43835;SDS011;39345;43.964;25.340;2022-11-20T00:15:06;43.92;;;23.15;;
43835;SDS011;39345;43.964;25.340;2022-11-20T00:17:33;40.83;;;22.13;;
43835;SDS011;39345;43.964;25.340;2022-11-20T00:20:01;40.55;;;24.52;;
43835;SDS011;39345;43.964;25.340;2022-11-20T00:22:28;42.80;;;23.40;;
43835;SDS011;39345;43.964;25.340;2022-11-20T00:24:56;40.60;;;24.00;;
43835;SDS011;39345;43.964;25.340;2022-11-20T00:27:24;39.90;;;22.50;;
43835;SDS011;39345;43.964;25.340;2022-11-20T00:29:51;41.00;;;23.48;;
43835;SDS011;39345;43.964;25.340;2022-11-20T00:32:19;37.95;;;23.23;;
43835;SDS011;39345;43.964;25.340;2022-11-20T00:34:46;40.90;;;23.50;;
43835;SDS011;39345;43.964;25.340;2022-11-20T00:37:13;41.97;;;22.40;;
43835;SDS011;39345;43.964;25.340;2022-11-20T00:39:41;33.58;;;20.27;;
43835;SDS011;39345;43.964;25.340;2022-11-20T00:42:08;34.65;;;21.08;;
43835;SDS011;39345;43.964;25.340;2022-11-20T00:44:36;32.67;;;19.98;;
43835;SDS011;39345;43.964;25.340;2022-11-20T00:47:03;35.50;;;20.52;;
43835;SDS011;39345;43.964;25.340;2022-11-20T00:49:30;31.70;;;18.98;;
43835;SDS011;39345;43.964;25.340;2022-11-20T00:51:58;31.67;;;19.25;;
43835;SDS011;39345;43.964;25.340;2022-11-20T00:54:25;30.90;;;18.10;;
43835;SDS011;39345;43.964;25.340;2022-11-20T00:56:53;33.17;;;18.90;;
43835;SDS011;39345;43.964;25.340;2022-11-20T00:59:20;32.15;;;19.83;;
43835;SDS011;39345;43.964;25.340;2022-11-20T01:01:48;30.40;;;18.63;;
43835;SDS011;39345;43.964;25.340;2022-11-20T01:04:16;31.70;;;18.65;;
43835;SDS011;39345;43.964;25.340;2022-11-20T01:06:43;31.17;;;18.63;;
43835;SDS011;39345;43.964;25.340;2022-11-20T01:09:12;29.95;;;19.52;;
43835;SDS011;39345;43.964;25.340;2022-11-20T01:11:40;31.13;;;18.85;;
43835;SDS011;39345;43.964;25.340;2022-11-20T01:14:15;30.60;;;18.67;;
43835;SDS011;39345;43.964;25.340;2022-11-20T01:16:44;32.85;;;18.77;;
43835;SDS011;39345;43.964;25.340;2022-11-20T01:19:13;33.72;;;20.73;;
43835;SDS011;39345;43.964;25.340;2022-11-20T01:21:44;35.42;;;19.33;;
43835;SDS011;39345;43.964;25.340;2022-11-20T01:24:12;31.33;;;19.13;;
43835;SDS011;39345;43.964;25.340;2022-11-20T01:26:41;31.40;;;20.05;;
43835;SDS011;39345;43.964;25.340;2022-11-20T01:29:19;32.92;;;20.02;;
43835;SDS011;39345;43.964;25.340;2022-11-20T01:31:47;31.45;;;18.77;;
43835;SDS011;39345;43.964;25.340;2022-11-20T01:34:16;33.08;;;20.42;;
43835;SDS011;39345;43.964;25.340;2022-11-20T01:36:43;30.75;;;20.05;;
43835;SDS011;39345;43.964;25.340;2022-11-20T01:39:18;31.98;;;19.88;;
43835;SDS011;39345;43.964;25.340;2022-11-20T01:41:47;38.15;;;21.80;;
43835;SDS011;39345;43.964;25.340;2022-11-20T01:44:55;36.70;;;22.20;;
43835;SDS011;39345;43.964;25.340;2022-11-20T01:47:25;38.40;;;21.55;;
43835;SDS011;39345;43.964;25.340;2022-11-20T01:49:59;36.97;;;20.80;;
43835;SDS011;39345;43.964;25.340;2022-11-20T01:52:36;36.47;;;22.15;;
43835;SDS011;39345;43.964;25.340;2022-11-20T01:55:07;37.45;;;22.92;;
43835;SDS011;39345;43.964;25.340;2022-11-20T01:57:35;37.33;;;23.13;;
43835;SDS011;39345;43.964;25.340;2022-11-20T02:00:05;36.67;;;22.42;;
43835;SDS011;39345;43.964;25.340;2022-11-20T02:02:40;37.25;;;23.55;;
43835;SDS011;39345;43.964;25.340;2022-11-20T02:05:43;44.03;;;23.83;;
43835;SDS011;39345;43.964;25.340;2022-11-20T02:08:02;38.65;;;23.10;;
43835;SDS011;39345;43.964;25.340;2022-11-20T02:10:30;38.45;;;23.25;;
43835;SDS011;39345;43.964;25.340;2022-11-20T02:12:58;43.22;;;23.88;;
43835;SDS011;39345;43.964;25.340;2022-11-20T02:15:44;42.60;;;24.33;;
43835;SDS011;39345;43.964;25.340;2022-11-20T02:18:14;46.75;;;26.35;;
43835;SDS011;39345;43.964;25.340;2022-11-20T02:20:42;48.13;;;26.52;;
43835;SDS011;39345;43.964;25.340;2022-11-20T02:26:05;47.15;;;25.77;;
43835;SDS011;39345;43.964;25.340;2022-11-20T02:28:34;61.03;;;27.30;;
43835;SDS011;39345;43.964;25.340;2022-11-20T02:31:02;51.97;;;26.15;;
43835;SDS011;39345;43.964;25.340;2022-11-20T02:33:30;50.33;;;27.65;;
43835;SDS011;39345;43.964;25.340;2022-11-20T02:35:57;47.28;;;25.73;;
43835;SDS011;39345;43.964;25.340;2022-11-20T02:38:25;47.28;;;26.52;;
43835;SDS011;39345;43.964;25.340;2022-11-20T02:40:52;50.10;;;27.73;;
43835;SDS011;39345;43.964;25.340;2022-11-20T02:43:21;52.92;;;28.88;;
43835;SDS011;39345;43.964;25.340;2022-11-20T02:45:49;48.47;;;25.45;;
43835;SDS011;39345;43.964;25.340;2022-11-20T02:48:16;55.00;;;30.08;;
43835;SDS011;39345;43.964;25.340;2022-11-20T02:50:44;54.85;;;29.88;;
43835;SDS011;39345;43.964;25.340;2022-11-20T02:53:11;52.38;;;29.17;;
43835;SDS011;39345;43.964;25.340;2022-11-20T02:55:39;53.70;;;28.90;;
43835;SDS011;39345;43.964;25.340;2022-11-20T02:58:07;53.60;;;28.63;;
43835;SDS011;39345;43.964;25.340;2022-11-20T03:00:34;52.97;;;29.10;;
43835;SDS011;39345;43.964;25.340;2022-11-20T03:03:02;58.70;;;30.23;;
43835;SDS011;39345;43.964;25.340;2022-11-20T03:05:29;54.65;;;29.10;;
43835;SDS011;39345;43.964;25.340;2022-11-20T03:07:56;52.92;;;28.23;;
43835;SDS011;39345;43.964;25.340;2022-11-20T03:10:24;52.90;;;28.90;;
43835;SDS011;39345;43.964;25.340;2022-11-20T03:12:54;56.63;;;30.05;;
43835;SDS011;39345;43.964;25.340;2022-11-20T03:15:23;57.28;;;30.67;;
43835;SDS011;39345;43.964;25.340;2022-11-20T03:17:54;52.75;;;29.48;;
43835;SDS011;39345;43.964;25.340;2022-11-20T03:20:22;55.83;;;29.33;;
43835;SDS011;39345;43.964;25.340;2022-11-20T03:22:50;53.03;;;30.88;;
43835;SDS011;39345;43.964;25.340;2022-11-20T03:25:17;58.25;;;30.45;;
43835;SDS011;39345;43.964;25.340;2022-11-20T03:27:45;56.58;;;30.55;;
43835;SDS011;39345;43.964;25.340;2022-11-20T03:30:12;59.85;;;29.63;;
43835;SDS011;39345;43.964;25.340;2022-11-20T03:32:40;53.50;;;30.27;;
43835;SDS011;39345;43.964;25.340;2022-11-20T03:35:07;54.20;;;28.02;;
43835;SDS011;39345;43.964;25.340;2022-11-20T03:37:35;58.33;;;31.40;;
43835;SDS011;39345;43.964;25.340;2022-11-20T03:40:03;60.92;;;30.88;;
43835;SDS011;39345;43.964;25.340;2022-11-20T03:42:30;64.00;;;30.17;;
43835;SDS011;39345;43.964;25.340;2022-11-20T03:45:14;53.05;;;30.52;;
43835;SDS011;39345;43.964;25.340;2022-11-20T03:47:42;57.22;;;30.83;;
43835;SDS011;39345;43.964;25.340;2022-11-20T03:50:10;58.97;;;31.63;;
43835;SDS011;39345;43.964;25.340;2022-11-20T03:52:39;67.38;;;31.88;;
43835;SDS011;39345;43.964;25.340;2022-11-20T03:55:07;54.67;;;29.92;;
43835;SDS011;39345;43.964;25.340;2022-11-20T03:57:34;63.90;;;34.30;;
43835;SDS011;39345;43.964;25.340;2022-11-20T04:00:02;60.90;;;32.90;;
43835;SDS011;39345;43.964;25.340;2022-11-20T04:02:30;57.30;;;32.47;;
43835;SDS011;39345;43.964;25.340;2022-11-20T04:04:57;63.42;;;31.65;;
43835;SDS011;39345;43.964;25.340;2022-11-20T04:07:25;64.72;;;32.75;;
43835;SDS011;39345;43.964;25.340;2022-11-20T04:09:52;60.40;;;32.28;;
43835;SDS011;39345;43.964;25.340;2022-11-20T04:12:22;61.22;;;33.47;;
43835;SDS011;39345;43.964;25.340;2022-11-20T04:14:49;59.33;;;31.73;;
43835;SDS011;39345;43.964;25.340;2022-11-20T04:17:16;60.40;;;30.70;;
43835;SDS011;39345;43.964;25.340;2022-11-20T04:19:44;68.75;;;33.33;;
43835;SDS011;39345;43.964;25.340;2022-11-20T04:22:11;57.60;;;30.63;;
43835;SDS011;39345;43.964;25.340;2022-11-20T04:24:39;64.22;;;32.70;;
43835;SDS011;39345;43.964;25.340;2022-11-20T04:27:06;59.30;;;30.92;;
43835;SDS011;39345;43.964;25.340;2022-11-20T04:29:34;55.85;;;30.35;;
43835;SDS011;39345;43.964;25.340;2022-11-20T04:32:01;58.38;;;29.67;;
43835;SDS011;39345;43.964;25.340;2022-11-20T04:34:29;59.72;;;31.05;;
43835;SDS011;39345;43.964;25.340;2022-11-20T04:36:56;55.72;;;28.95;;
43835;SDS011;39345;43.964;25.340;2022-11-20T04:39:26;52.80;;;29.30;;
43835;SDS011;39345;43.964;25.340;2022-11-20T04:41:54;57.70;;;29.92;;
43835;SDS011;39345;43.964;25.340;2022-11-20T04:44:40;53.45;;;28.33;;
43835;SDS011;39345;43.964;25.340;2022-11-20T04:47:07;50.15;;;27.92;;
43835;SDS011;39345;43.964;25.340;2022-11-20T04:49:35;49.83;;;28.83;;
43835;SDS011;39345;43.964;25.340;2022-11-20T04:52:02;57.92;;;30.15;;
43835;SDS011;39345;43.964;25.340;2022-11-20T04:54:30;57.00;;;30.17;;
43835;SDS011;39345;43.964;25.340;2022-11-20T04:56:57;51.45;;;28.77;;
43835;SDS011;39345;43.964;25.340;2022-11-20T04:59:25;55.88;;;29.17;;
43835;SDS011;39345;43.964;25.340;2022-11-20T05:01:53;52.85;;;28.60;;
43835;SDS011;39345;43.964;25.340;2022-11-20T05:04:23;52.20;;;29.08;;
43835;SDS011;39345;43.964;25.340;2022-11-20T05:06:50;53.95;;;28.70;;
43835;SDS011;39345;43.964;25.340;2022-11-20T05:09:17;51.53;;;28.08;;
43835;SDS011;39345;43.964;25.340;2022-11-20T05:11:46;53.92;;;27.88;;
43835;SDS011;39345;43.964;25.340;2022-11-20T05:14:19;50.72;;;28.20;;
43835;SDS011;39345;43.964;25.340;2022-11-20T05:16:47;47.70;;;27.23;;
43835;SDS011;39345;43.964;25.340;2022-11-20T05:19:15;50.22;;;25.48;;
43835;SDS011;39345;43.964;25.340;2022-11-20T05:21:42;47.80;;;25.60;;
43835;SDS011;39345;43.964;25.340;2022-11-20T05:24:09;47.45;;;26.20;;
43835;SDS011;39345;43.964;25.340;2022-11-20T05:26:37;44.28;;;26.08;;
43835;SDS011;39345;43.964;25.340;2022-11-20T05:29:04;44.30;;;22.42;;
43835;SDS011;39345;43.964;25.340;2022-11-20T05:31:32;39.15;;;21.83;;
43835;SDS011;39345;43.964;25.340;2022-11-20T05:33:59;45.42;;;22.83;;
43835;SDS011;39345;43.964;25.340;2022-11-20T05:36:27;42.58;;;23.70;;
43835;SDS011;39345;43.964;25.340;2022-11-20T05:38:54;39.97;;;21.13;;
43835;SDS011;39345;43.964;25.340;2022-11-20T05:41:27;34.33;;;18.52;;
43835;SDS011;39345;43.964;25.340;2022-11-20T05:43:55;36.95;;;19.73;;
43835;SDS011;39345;43.964;25.340;2022-11-20T05:46:23;34.03;;;17.40;;
43835;SDS011;39345;43.964;25.340;2022-11-20T05:48:54;36.83;;;17.52;;
43835;SDS011;39345;43.964;25.340;2022-11-20T05:51:22;33.72;;;17.75;;
43835;SDS011;39345;43.964;25.340;2022-11-20T05:53:49;28.70;;;16.83;;
43835;SDS011;39345;43.964;25.340;2022-11-20T05:56:18;27.48;;;14.90;;
43835;SDS011;39345;43.964;25.340;2022-11-20T05:58:46;25.77;;;16.02;;
43835;SDS011;39345;43.964;25.340;2022-11-20T06:01:15;24.55;;;14.50;;
43835;SDS011;39345;43.964;25.340;2022-11-20T06:03:43;25.08;;;13.55;;
43835;SDS011;39345;43.964;25.340;2022-11-20T06:06:12;24.27;;;14.40;;
43835;SDS011;39345;43.964;25.340;2022-11-20T06:08:40;22.60;;;13.43;;
43835;SDS011;39345;43.964;25.340;2022-11-20T06:11:09;21.63;;;12.60;;
43835;SDS011;39345;43.964;25.340;2022-11-20T06:13:37;25.05;;;14.50;;
43835;SDS011;39345;43.964;25.340;2022-11-20T06:16:08;24.48;;;13.93;;
43835;SDS011;39345;43.964;25.340;2022-11-20T06:18:35;23.98;;;13.15;;
43835;SDS011;39345;43.964;25.340;2022-11-20T06:21:14;20.40;;;13.30;;
43835;SDS011;39345;43.964;25.340;2022-11-20T06:23:42;23.98;;;13.20;;
43835;SDS011;39345;43.964;25.340;2022-11-20T06:26:15;18.88;;;12.43;;
43835;SDS011;39345;43.964;25.340;2022-11-20T06:28:43;20.77;;;11.88;;
43835;SDS011;39345;43.964;25.340;2022-11-20T06:31:11;18.73;;;10.88;;
43835;SDS011;39345;43.964;25.340;2022-11-20T06:33:40;16.25;;;9.40;;
43835;SDS011;39345;43.964;25.340;2022-11-20T06:36:09;16.10;;;9.95;;
43835;SDS011;39345;43.964;25.340;2022-11-20T06:38:37;13.50;;;9.55;;
43835;SDS011;39345;43.964;25.340;2022-11-20T06:41:06;16.00;;;9.13;;
43835;SDS011;39345;43.964;25.340;2022-11-20T06:43:33;15.68;;;9.27;;
43835;SDS011;39345;43.964;25.340;2022-11-20T06:46:01;14.25;;;9.52;;
43835;SDS011;39345;43.964;25.340;2022-11-20T06:48:28;15.25;;;8.77;;
43835;SDS011;39345;43.964;25.340;2022-11-20T06:50:56;11.90;;;7.72;;
43835;SDS011;39345;43.964;25.340;2022-11-20T06:53:24;12.65;;;8.27;;
43835;SDS011;39345;43.964;25.340;2022-11-20T06:55:51;12.20;;;7.75;;
43835;SDS011;39345;43.964;25.340;2022-11-20T06:58:19;12.85;;;8.90;;
43835;SDS011;39345;43.964;25.340;2022-11-20T07:00:47;13.20;;;8.10;;
43835;SDS011;39345;43.964;25.340;2022-11-20T07:03:14;11.55;;;7.15;;
43835;SDS011;39345;43.964;25.340;2022-11-20T07:05:41;13.32;;;8.25;;
43835;SDS011;39345;43.964;25.340;2022-11-20T07:08:10;13.82;;;8.35;;
43835;SDS011;39345;43.964;25.340;2022-11-20T07:10:37;12.90;;;8.38;;
43835;SDS011;39345;43.964;25.340;2022-11-20T07:13:04;13.35;;;8.90;;
43835;SDS011;39345;43.964;25.340;2022-11-20T07:15:33;25.52;;;19.67;;
43835;SDS011;39345;43.964;25.340;2022-11-20T07:18:00;31.02;;;25.45;;
43835;SDS011;39345;43.964;25.340;2022-11-20T07:20:28;32.42;;;27.20;;
43835;SDS011;39345;43.964;25.340;2022-11-20T07:22:56;22.80;;;15.30;;
43835;SDS011;39345;43.964;25.340;2022-11-20T07:25:24;23.08;;;12.57;;
43835;SDS011;39345;43.964;25.340;2022-11-20T07:27:52;21.42;;;10.90;;
43835;SDS011;39345;43.964;25.340;2022-11-20T07:30:19;16.80;;;9.68;;
43835;SDS011;39345;43.964;25.340;2022-11-20T07:32:47;20.33;;;11.57;;
43835;SDS011;39345;43.964;25.340;2022-11-20T07:35:15;19.42;;;11.60;;
43835;SDS011;39345;43.964;25.340;2022-11-20T07:37:42;21.65;;;12.48;;
43835;SDS011;39345;43.964;25.340;2022-11-20T07:40:12;21.27;;;12.07;;
43835;SDS011;39345;43.964;25.340;2022-11-20T07:42:46;21.38;;;10.57;;
43835;SDS011;39345;43.964;25.340;2022-11-20T07:45:14;19.27;;;10.10;;
43835;SDS011;39345;43.964;25.340;2022-11-20T07:47:42;20.23;;;11.57;;
43835;SDS011;39345;43.964;25.340;2022-11-20T07:50:09;20.48;;;12.82;;
43835;SDS011;39345;43.964;25.340;2022-11-20T07:52:37;24.45;;;14.77;;
43835;SDS011;39345;43.964;25.340;2022-11-20T07:55:05;24.90;;;13.60;;
43835;SDS011;39345;43.964;25.340;2022-11-20T07:57:32;25.70;;;14.07;;
43835;SDS011;39345;43.964;25.340;2022-11-20T08:00:00;23.73;;;12.88;;
43835;SDS011;39345;43.964;25.340;2022-11-20T08:02:40;22.65;;;12.57;;
43835;SDS011;39345;43.964;25.340;2022-11-20T08:05:08;25.23;;;13.00;;
43835;SDS011;39345;43.964;25.340;2022-11-20T08:07:37;21.92;;;12.13;;
43835;SDS011;39345;43.964;25.340;2022-11-20T08:10:05;22.88;;;12.60;;
43835;SDS011;39345;43.964;25.340;2022-11-20T08:12:33;21.60;;;12.50;;
43835;SDS011;39345;43.964;25.340;2022-11-20T08:15:19;24.80;;;13.02;;
43835;SDS011;39345;43.964;25.340;2022-11-20T08:17:46;21.85;;;13.32;;
43835;SDS011;39345;43.964;25.340;2022-11-20T08:20:34;21.75;;;12.98;;
43835;SDS011;39345;43.964;25.340;2022-11-20T08:23:02;22.58;;;12.52;;
43835;SDS011;39345;43.964;25.340;2022-11-20T08:25:32;22.80;;;12.93;;
43835;SDS011;39345;43.964;25.340;2022-11-20T08:28:00;25.35;;;12.90;;
43835;SDS011;39345;43.964;25.340;2022-11-20T08:30:44;22.50;;;13.20;;
43835;SDS011;39345;43.964;25.340;2022-11-20T08:33:12;28.35;;;14.80;;
43835;SDS011;39345;43.964;25.340;2022-11-20T08:35:39;24.63;;;14.88;;
43835;SDS011;39345;43.964;25.340;2022-11-20T08:38:09;28.63;;;14.77;;
43835;SDS011;39345;43.964;25.340;2022-11-20T08:40:36;26.10;;;13.25;;
43835;SDS011;39345;43.964;25.340;2022-11-20T08:43:04;26.13;;;15.30;;
43835;SDS011;39345;43.964;25.340;2022-11-20T08:45:31;26.63;;;15.45;;
43835;SDS011;39345;43.964;25.340;2022-11-20T08:48:01;29.92;;;15.60;;
43835;SDS011;39345;43.964;25.340;2022-11-20T08:50:29;28.38;;;15.65;;
43835;SDS011;39345;43.964;25.340;2022-11-20T08:53:04;26.02;;;15.13;;
43835;SDS011;39345;43.964;25.340;2022-11-20T08:55:32;28.55;;;15.18;;
43835;SDS011;39345;43.964;25.340;2022-11-20T08:58:05;30.73;;;15.77;;
43835;SDS011;39345;43.964;25.340;2022-11-20T09:00:33;29.48;;;15.40;;
43835;SDS011;39345;43.964;25.340;2022-11-20T09:03:01;29.60;;;16.60;;
43835;SDS011;39345;43.964;25.340;2022-11-20T09:05:29;30.25;;;16.67;;
43835;SDS011;39345;43.964;25.340;2022-11-20T09:07:57;28.48;;;16.65;;
43835;SDS011;39345;43.964;25.340;2022-11-20T09:10:25;33.05;;;16.60;;
43835;SDS011;39345;43.964;25.340;2022-11-20T09:12:52;31.88;;;16.83;;
43835;SDS011;39345;43.964;25.340;2022-11-20T09:15:21;29.30;;;16.65;;
43835;SDS011;39345;43.964;25.340;2022-11-20T09:17:56;32.22;;;18.25;;
43835;SDS011;39345;43.964;25.340;2022-11-20T09:22:51;34.10;;;18.40;;
43835;SDS011;39345;43.964;25.340;2022-11-20T09:25:19;35.42;;;18.38;;
43835;SDS011;39345;43.964;25.340;2022-11-20T09:27:47;39.13;;;20.77;;
43835;SDS011;39345;43.964;25.340;2022-11-20T09:30:14;30.48;;;19.13;;
43835;SDS011;39345;43.964;25.340;2022-11-20T09:32:43;33.83;;;20.23;;
43835;SDS011;39345;43.964;25.340;2022-11-20T09:35:11;39.78;;;20.23;;
43835;SDS011;39345;43.964;25.340;2022-11-20T09:37:38;38.58;;;20.33;;
43835;SDS011;39345;43.964;25.340;2022-11-20T09:40:06;37.58;;;20.00;;
43835;SDS011;39345;43.964;25.340;2022-11-20T09:50:43;40.78;;;20.20;;
43835;SDS011;39345;43.964;25.340;2022-11-20T09:55:47;43.60;;;23.02;;
43835;SDS011;39345;43.964;25.340;2022-11-20T10:00:49;46.90;;;22.77;;
43835;SDS011;39345;43.964;25.340;2022-11-20T10:03:20;43.20;;;21.45;;
43835;SDS011;39345;43.964;25.340;2022-11-20T10:05:53;46.17;;;23.15;;
43835;SDS011;39345;43.964;25.340;2022-11-20T10:08:22;46.95;;;23.30;;
43835;SDS011;39345;43.964;25.340;2022-11-20T10:11:00;40.55;;;23.17;;
43835;SDS011;39345;43.964;25.340;2022-11-20T10:21:08;40.75;;;22.10;;
43835;SDS011;39345;43.964;25.340;2022-11-20T10:26:17;46.97;;;24.02;;
43835;SDS011;39345;43.964;25.340;2022-11-20T10:31:45;49.72;;;25.58;;
43835;SDS011;39345;43.964;25.340;2022-11-20T10:36:55;60.95;;;29.95;;
43835;SDS011;39345;43.964;25.340;2022-11-20T10:39:33;60.42;;;30.63;;
43835;SDS011;39345;43.964;25.340;2022-11-20T10:42:02;57.60;;;27.40;;
43835;SDS011;39345;43.964;25.340;2022-11-20T10:44:32;54.00;;;29.02;;
43835;SDS011;39345;43.964;25.340;2022-11-20T10:47:22;49.33;;;26.35;;
43835;SDS011;39345;43.964;25.340;2022-11-20T10:49:51;51.67;;;27.77;;
43835;SDS011;39345;43.964;25.340;2022-11-20T10:54:49;47.45;;;26.75;;
43835;SDS011;39345;43.964;25.340;2022-11-20T10:57:30;52.90;;;28.17;;
43835;SDS011;39345;43.964;25.340;2022-11-20T11:00:04;58.28;;;29.30;;
43835;SDS011;39345;43.964;25.340;2022-11-20T11:02:34;53.05;;;28.23;;
43835;SDS011;39345;43.964;25.340;2022-11-20T11:05:08;59.45;;;30.65;;
43835;SDS011;39345;43.964;25.340;2022-11-20T11:07:40;50.65;;;29.30;;
43835;SDS011;39345;43.964;25.340;2022-11-20T11:12:43;53.17;;;28.55;;
43835;SDS011;39345;43.964;25.340;2022-11-20T11:15:12;52.38;;;28.52;;
43835;SDS011;39345;43.964;25.340;2022-11-20T11:17:47;60.03;;;30.35;;
43835;SDS011;39345;43.964;25.340;2022-11-20T11:20:19;55.72;;;29.55;;
43835;SDS011;39345;43.964;25.340;2022-11-20T11:25:31;44.50;;;25.35;;
43835;SDS011;39345;43.964;25.340;2022-11-20T11:28:17;46.75;;;25.48;;
43835;SDS011;39345;43.964;25.340;2022-11-20T11:30:46;38.30;;;21.77;;
43835;SDS011;39345;43.964;25.340;2022-11-20T11:33:21;43.20;;;22.10;;
43835;SDS011;39345;43.964;25.340;2022-11-20T11:35:49;42.67;;;23.35;;
43835;SDS011;39345;43.964;25.340;2022-11-20T11:38:21;46.83;;;23.38;;
43835;SDS011;39345;43.964;25.340;2022-11-20T11:40:52;40.85;;;23.45;;
43835;SDS011;39345;43.964;25.340;2022-11-20T11:43:31;43.45;;;22.20;;
43835;SDS011;39345;43.964;25.340;2022-11-20T11:54:34;37.38;;;21.05;;
43835;SDS011;39345;43.964;25.340;2022-11-20T12:00:00;41.38;;;22.65;;
43835;SDS011;39345;43.964;25.340;2022-11-20T12:02:46;38.90;;;23.15;;
43835;SDS011;39345;43.964;25.340;2022-11-20T12:07:47;42.63;;;25.60;;
43835;SDS011;39345;43.964;25.340;2022-11-20T12:10:17;77.30;;;47.53;;
43835;SDS011;39345;43.964;25.340;2022-11-20T12:12:47;52.58;;;31.70;;
43835;SDS011;39345;43.964;25.340;2022-11-20T12:15:22;39.90;;;24.60;;
43835;SDS011;39345;43.964;25.340;2022-11-20T12:17:50;38.38;;;24.30;;
43835;SDS011;39345;43.964;25.340;2022-11-20T12:20:18;59.05;;;33.85;;
43835;SDS011;39345;43.964;25.340;2022-11-20T12:30:21;41.15;;;25.50;;
43835;SDS011;39345;43.964;25.340;2022-11-20T12:42:08;39.55;;;23.45;;
43835;SDS011;39345;43.964;25.340;2022-11-20T12:49:57;53.40;;;30.35;;
43835;SDS011;39345;43.964;25.340;2022-11-20T13:00:53;38.17;;;22.88;;
43835;SDS011;39345;43.964;25.340;2022-11-20T13:03:29;34.50;;;22.52;;
43835;SDS011;39345;43.964;25.340;2022-11-20T13:06:13;39.25;;;23.10;;
43835;SDS011;39345;43.964;25.340;2022-11-20T13:08:45;42.33;;;24.95;;
43835;SDS011;39345;43.964;25.340;2022-11-20T13:11:25;49.60;;;27.80;;
43835;SDS011;39345;43.964;25.340;2022-11-20T13:17:12;47.17;;;27.08;;
43835;SDS011;39345;43.964;25.340;2022-11-20T13:19:15;44.40;;;26.60;;
43835;SDS011;39345;43.964;25.340;2022-11-20T13:21:44;38.55;;;23.33;;
43835;SDS011;39345;43.964;25.340;2022-11-20T13:26:46;37.33;;;22.77;;
43835;SDS011;39345;43.964;25.340;2022-11-20T13:29:17;37.75;;;23.95;;
43835;SDS011;39345;43.964;25.340;2022-11-20T13:31:46;37.50;;;24.23;;
43835;SDS011;39345;43.964;25.340;2022-11-20T13:34:23;47.38;;;29.60;;
43835;SDS011;39345;43.964;25.340;2022-11-20T13:36:55;68.18;;;40.53;;
43835;SDS011;39345;43.964;25.340;2022-11-20T13:39:24;52.05;;;31.63;;
43835;SDS011;39345;43.964;25.340;2022-11-20T13:41:56;68.18;;;40.70;;
43835;SDS011;39345;43.964;25.340;2022-11-20T13:46:54;169.98;;;114.47;;
43835;SDS011;39345;43.964;25.340;2022-11-20T13:49:37;67.75;;;45.55;;
43835;SDS011;39345;43.964;25.340;2022-11-20T13:58:10;74.85;;;47.53;;
43835;SDS011;39345;43.964;25.340;2022-11-20T14:00:29;73.38;;;47.80;;
43835;SDS011;39345;43.964;25.340;2022-11-20T14:05:28;44.08;;;26.85;;
43835;SDS011;39345;43.964;25.340;2022-11-20T14:07:58;45.38;;;26.10;;
43835;SDS011;39345;43.964;25.340;2022-11-20T14:10:27;69.30;;;43.15;;
43835;SDS011;39345;43.964;25.340;2022-11-20T14:12:58;60.85;;;39.30;;
43835;SDS011;39345;43.964;25.340;2022-11-20T14:15:30;43.90;;;25.27;;
43835;SDS011;39345;43.964;25.340;2022-11-20T14:17:58;36.10;;;23.23;;
43835;SDS011;39345;43.964;25.340;2022-11-20T14:20:26;41.15;;;24.10;;
43835;SDS011;39345;43.964;25.340;2022-11-20T14:22:54;37.50;;;23.55;;
43835;SDS011;39345;43.964;25.340;2022-11-20T14:25:23;52.78;;;30.73;;
43835;SDS011;39345;43.964;25.340;2022-11-20T14:27:54;57.10;;;30.95;;
43835;SDS011;39345;43.964;25.340;2022-11-20T14:30:26;52.08;;;30.75;;
43835;SDS011;39345;43.964;25.340;2022-11-20T14:33:01;49.45;;;29.00;;
43835;SDS011;39345;43.964;25.340;2022-11-20T14:35:30;46.60;;;28.35;;
43835;SDS011;39345;43.964;25.340;2022-11-20T14:37:58;39.95;;;25.08;;
43835;SDS011;39345;43.964;25.340;2022-11-20T14:40:27;39.38;;;25.33;;
43835;SDS011;39345;43.964;25.340;2022-11-20T14:42:56;40.75;;;25.83;;
43835;SDS011;39345;43.964;25.340;2022-11-20T14:45:24;40.65;;;24.35;;
43835;SDS011;39345;43.964;25.340;2022-11-20T14:47:52;37.17;;;22.85;;
43835;SDS011;39345;43.964;25.340;2022-11-20T14:50:22;38.42;;;22.13;;
43835;SDS011;39345;43.964;25.340;2022-11-20T14:52:51;32.95;;;22.00;;
43835;SDS011;39345;43.964;25.340;2022-11-20T14:55:25;37.92;;;23.70;;
43835;SDS011;39345;43.964;25.340;2022-11-20T14:57:58;38.53;;;23.67;;
43835;SDS011;39345;43.964;25.340;2022-11-20T15:00:26;77.63;;;49.83;;
43835;SDS011;39345;43.964;25.340;2022-11-20T15:02:54;74.43;;;50.40;;
43835;SDS011;39345;43.964;25.340;2022-11-20T15:05:22;64.45;;;41.67;;
43835;SDS011;39345;43.964;25.340;2022-11-20T15:07:52;75.97;;;47.42;;
43835;SDS011;39345;43.964;25.340;2022-11-20T15:10:23;165.82;;;104.35;;
43835;SDS011;39345;43.964;25.340;2022-11-20T15:13:34;128.55;;;89.45;;
43835;SDS011;39345;43.964;25.340;2022-11-20T15:15:51;81.72;;;55.95;;
43835;SDS011;39345;43.964;25.340;2022-11-20T15:18:22;66.65;;;42.17;;
43835;SDS011;39345;43.964;25.340;2022-11-20T15:20:50;48.25;;;31.48;;
43835;SDS011;39345;43.964;25.340;2022-11-20T15:23:19;48.08;;;32.60;;
43835;SDS011;39345;43.964;25.340;2022-11-20T15:25:47;44.28;;;30.77;;
43835;SDS011;39345;43.964;25.340;2022-11-20T15:28:48;57.95;;;41.78;;
43835;SDS011;39345;43.964;25.340;2022-11-20T15:31:11;105.45;;;72.45;;
43835;SDS011;39345;43.964;25.340;2022-11-20T15:33:38;71.88;;;49.42;;
43835;SDS011;39345;43.964;25.340;2022-11-20T15:36:06;58.50;;;39.35;;
43835;SDS011;39345;43.964;25.340;2022-11-20T15:38:33;87.85;;;56.80;;
43835;SDS011;39345;43.964;25.340;2022-11-20T15:41:01;65.47;;;43.15;;
43835;SDS011;39345;43.964;25.340;2022-11-20T15:43:30;44.25;;;28.27;;
43835;SDS011;39345;43.964;25.340;2022-11-20T15:46:02;45.10;;;27.48;;
43835;SDS011;39345;43.964;25.340;2022-11-20T15:48:31;33.60;;;21.77;;
43835;SDS011;39345;43.964;25.340;2022-11-20T15:51:01;38.67;;;24.35;;
43835;SDS011;39345;43.964;25.340;2022-11-20T15:53:29;32.85;;;21.63;;
43835;SDS011;39345;43.964;25.340;2022-11-20T15:55:57;59.65;;;32.45;;
43835;SDS011;39345;43.964;25.340;2022-11-20T15:58:24;51.70;;;29.60;;
43835;SDS011;39345;43.964;25.340;2022-11-20T16:00:53;51.85;;;29.40;;
43835;SDS011;39345;43.964;25.340;2022-11-20T16:03:21;34.42;;;21.25;;
43835;SDS011;39345;43.964;25.340;2022-11-20T16:05:48;37.47;;;24.55;;